D Lo, Mississippi
Current Conditions -  °F | °C
As of 3:54 AM on Friday 28 Nov 2014 (Local Time) from KJAN Reporting Station
Clear Clear  
Wind Chill: 29°   Ceiling: Unl
Heat Index: 29°   Visibility: 10mi
Dew Point: 27°   Wind: 0mph
Humidity: 92%   Direction: NA
Pressure: 30.42"   Gusts: NA
Location:  31.98°N, 89.9°W
Report Text: KJAN 280954Z AUTO 00000KT 10SM CLR M02/M03 A3042 RMK AO2 SLP304 T10171028
Loading
Personal Weather Stations






























Interactive Weather Map New forecast layout! Learn more

10-Day Weather Forecast

Advertisements
Track Severe Weather on mobile